createdAt,value
2023-05-06T00:03:15.706Z,22.73
2023-05-06T00:08:13.739Z,22.65
2023-05-06T00:13:13.013Z,22.67
2023-05-06T00:18:13.222Z,22.55
2023-05-06T00:23:11.521Z,22.45
2023-05-06T00:28:10.777Z,22.57
2023-05-06T00:33:10.097Z,22.46
2023-05-06T00:38:09.180Z,22.60
2023-05-06T00:43:08.438Z,22.52
2023-05-06T00:48:08.731Z,22.37
2023-05-06T00:53:07.971Z,22.49
2023-05-06T00:58:08.217Z,22.47
2023-05-06T01:03:05.516Z,22.52
2023-05-06T01:08:05.723Z,22.58
2023-05-06T01:13:03.969Z,22.55
2023-05-06T01:18:03.223Z,22.51
2023-05-06T01:23:02.435Z,22.52
2023-05-06T01:28:01.682Z,22.49
2023-05-06T01:33:02.003Z,22.51
2023-05-06T01:38:02.283Z,22.45
2023-05-06T01:43:00.519Z,22.49
2023-05-06T01:47:58.768Z,22.42
2023-05-06T01:52:57.965Z,22.37
2023-05-06T01:57:57.205Z,22.39
2023-05-06T02:02:58.489Z,22.39
2023-05-06T02:07:56.724Z,22.43
2023-05-06T02:12:56.006Z,22.40
2023-05-06T02:17:54.267Z,22.40
2023-05-06T02:22:54.467Z,22.43
2023-05-06T02:27:53.707Z,22.37
2023-05-06T02:32:52.030Z,22.42
2023-05-06T02:37:52.263Z,22.47
2023-05-06T02:42:50.535Z,22.46
2023-05-06T02:47:49.865Z,22.40
2023-05-06T02:52:49.086Z,22.39
2023-05-06T02:57:49.323Z,22.40
2023-05-06T03:02:47.606Z,22.37
2023-05-06T03:07:46.843Z,22.40
2023-05-06T03:12:46.080Z,22.35
2023-05-06T03:17:45.289Z,22.36
2023-05-06T03:22:44.501Z,22.35
2023-05-06T03:27:43.744Z,22.33
2023-05-06T03:32:43.108Z,22.31
2023-05-06T03:37:43.142Z,22.42
2023-05-06T03:42:41.373Z,22.40
2023-05-06T03:47:40.705Z,22.42
2023-05-06T03:52:39.902Z,22.36
2023-05-06T03:57:40.146Z,22.36
2023-05-06T04:02:40.438Z,22.24
2023-05-06T04:07:38.683Z,22.27
2023-05-06T04:12:37.948Z,22.18
2023-05-06T04:17:36.209Z,22.21
2023-05-06T04:22:35.467Z,22.17
2023-05-06T04:27:34.699Z,22.14
2023-05-06T04:32:34.910Z,22.12
2023-05-06T04:37:33.132Z,22.17
2023-05-06T04:42:34.342Z,22.15
2023-05-06T04:47:32.676Z,22.12
2023-05-06T04:52:30.717Z,22.05
2023-05-06T04:57:30.954Z,21.96
2023-05-06T05:02:29.364Z,22.06
2023-05-06T05:07:29.374Z,22.03
2023-05-06T05:12:28.619Z,22.00
2023-05-06T05:17:26.901Z,22.05
2023-05-06T05:22:26.148Z,21.92
2023-05-06T05:27:25.391Z,22.00
2023-05-06T05:32:24.627Z,21.99
2023-05-06T05:37:24.865Z,21.96
2023-05-06T05:42:23.101Z,21.92
2023-05-06T05:47:22.357Z,21.92
2023-05-06T05:52:22.620Z,21.96
2023-05-06T05:57:21.817Z,21.99
2023-05-06T06:02:20.208Z,21.99
2023-05-06T06:07:20.313Z,21.99
2023-05-06T06:12:18.506Z,21.94
2023-05-06T06:17:17.767Z,21.96
2023-05-06T06:22:18.014Z,21.96
2023-05-06T06:27:17.216Z,21.92
2023-05-06T06:32:15.450Z,21.96
2023-05-06T06:37:14.710Z,21.96
2023-05-06T06:42:14.948Z,21.98
2023-05-06T06:47:13.159Z,21.99
2023-05-06T06:52:12.373Z,21.99
2023-05-06T06:57:12.632Z,21.99
2023-05-06T07:02:11.863Z,22.00
2023-05-06T07:07:10.069Z,22.03
2023-05-06T07:12:09.312Z,22.03
2023-05-06T07:17:08.582Z,22.02
2023-05-06T07:22:07.788Z,22.05
2023-05-06T07:27:06.991Z,22.07
2023-05-06T07:32:06.208Z,22.07
2023-05-06T07:37:05.466Z,22.10
2023-05-06T07:42:04.695Z,22.15
2023-05-06T07:47:04.075Z,22.14
2023-05-06T07:52:04.211Z,22.14
2023-05-06T07:57:02.410Z,22.20
2023-05-06T08:02:01.776Z,22.18
2023-05-06T08:07:02.982Z,22.22
2023-05-06T08:12:04.249Z,22.22
2023-05-06T08:16:59.451Z,22.28
2023-05-06T08:21:58.762Z,22.31
2023-05-06T08:26:59.008Z,22.39
2023-05-06T08:31:57.337Z,22.46
2023-05-06T08:36:57.415Z,23.05
2023-05-06T08:41:58.697Z,23.88
2023-05-06T08:46:54.891Z,24.05
2023-05-06T08:51:54.139Z,24.50
2023-05-06T08:56:53.363Z,25.43
2023-05-06T09:01:52.617Z,25.92
2023-05-06T09:06:53.810Z,25.67
2023-05-06T09:11:51.039Z,26.09
2023-05-06T09:16:50.305Z,26.87
2023-05-06T09:21:49.533Z,26.85
2023-05-06T09:26:48.775Z,26.81
2023-05-06T09:31:48.989Z,26.44
2023-05-06T09:36:48.235Z,26.40
2023-05-06T09:41:46.515Z,26.80
2023-05-06T09:46:45.833Z,28.03
2023-05-06T09:51:44.951Z,27.99
2023-05-06T09:56:44.187Z,27.65
2023-05-06T10:01:43.468Z,27.81
2023-05-06T10:06:43.738Z,28.25
2023-05-06T10:11:41.979Z,27.93
2023-05-06T10:16:43.293Z,27.84
2023-05-06T10:21:41.540Z,27.70
2023-05-06T10:26:39.836Z,27.97
2023-05-06T10:31:39.127Z,28.29
2023-05-06T10:36:38.370Z,27.81
2023-05-06T10:41:38.586Z,27.70
2023-05-06T10:46:38.810Z,27.60
2023-05-06T10:51:36.026Z,27.29
2023-05-06T10:56:35.255Z,27.24
2023-05-06T11:01:34.522Z,27.72
2023-05-06T11:06:33.744Z,27.63
2023-05-06T11:11:33.947Z,27.78
2023-05-06T11:16:32.252Z,27.81
2023-05-06T11:21:31.504Z,27.62
2023-05-06T11:26:31.734Z,28.09
2023-05-06T11:31:30.144Z,27.84
2023-05-06T11:36:29.241Z,27.66
2023-05-06T11:41:28.484Z,27.94
2023-05-06T11:46:28.866Z,28.04
2023-05-06T11:51:27.952Z,27.92
2023-05-06T11:56:26.164Z,28.04
2023-05-06T12:01:25.413Z,28.07
2023-05-06T12:06:24.703Z,28.09
2023-05-06T12:11:23.890Z,28.04
2023-05-06T12:16:23.210Z,28.15
2023-05-06T12:21:23.439Z,27.82
2023-05-06T12:26:22.667Z,27.74
2023-05-06T12:31:21.927Z,27.54
2023-05-06T12:36:21.156Z,27.28
2023-05-06T12:41:20.517Z,27.09
2023-05-06T12:46:18.603Z,26.94
2023-05-06T12:51:17.926Z,26.91
2023-05-06T12:56:17.195Z,27.13
2023-05-06T13:01:16.483Z,27.34
2023-05-06T13:06:15.735Z,27.60
2023-05-06T13:11:16.023Z,27.46
2023-05-06T13:16:15.277Z,27.19
2023-05-06T13:21:13.546Z,27.04
2023-05-06T13:26:13.795Z,27.06
2023-05-06T13:31:12.098Z,26.85
2023-05-06T13:36:11.327Z,26.70
2023-05-06T13:41:10.554Z,26.57
2023-05-06T13:46:09.886Z,26.45
2023-05-06T13:51:09.131Z,26.33
2023-05-06T13:56:09.367Z,26.67
2023-05-06T14:01:08.597Z,26.67
2023-05-06T14:06:08.832Z,26.77
2023-05-06T14:11:06.060Z,26.92
2023-05-06T14:16:05.325Z,26.94
2023-05-06T14:21:04.574Z,26.77
2023-05-06T14:26:04.831Z,26.67
2023-05-06T14:31:05.070Z,26.55
2023-05-06T14:36:03.309Z,26.48
2023-05-06T14:41:02.584Z,26.37
2023-05-06T14:46:01.897Z,26.21
2023-05-06T14:51:00.109Z,26.25
2023-05-06T14:55:59.376Z,26.39
2023-05-06T15:01:00.685Z,26.57
2023-05-06T15:05:57.922Z,26.51
2023-05-06T15:10:58.145Z,26.51
2023-05-06T15:15:58.402Z,26.52
2023-05-06T15:20:55.619Z,26.51
2023-05-06T15:25:55.861Z,26.50
2023-05-06T15:30:55.063Z,26.47
2023-05-06T15:35:54.265Z,26.39
2023-05-06T15:40:53.491Z,26.33
2023-05-06T15:45:51.730Z,26.39
2023-05-06T15:50:50.941Z,26.65
2023-05-06T15:55:56.680Z,26.70
2023-05-06T16:00:51.434Z,26.76
2023-05-06T16:05:48.653Z,26.75
2023-05-06T16:10:47.885Z,26.44
2023-05-06T16:15:48.117Z,26.01
2023-05-06T16:20:46.378Z,26.06
2023-05-06T16:25:46.645Z,26.05
2023-05-06T16:30:44.881Z,26.02
2023-05-06T16:35:46.119Z,26.07
2023-05-06T16:40:43.346Z,26.17
2023-05-06T16:45:42.609Z,26.13
2023-05-06T16:50:41.878Z,25.83
2023-05-06T16:55:41.140Z,25.55
2023-05-06T17:00:40.428Z,25.33
2023-05-06T17:05:39.685Z,25.09
2023-05-06T17:10:38.956Z,24.85
2023-05-06T17:15:38.326Z,24.62
2023-05-06T17:20:51.710Z,24.42
2023-05-06T17:25:36.755Z,24.42
2023-05-06T17:30:36.061Z,24.50
2023-05-06T17:35:35.318Z,24.84
2023-05-06T17:40:34.642Z,25.52
2023-05-06T17:45:33.730Z,25.18
2023-05-06T17:50:33.075Z,24.99
2023-05-06T17:55:34.226Z,24.90
2023-05-06T18:00:31.388Z,24.64
2023-05-06T18:05:30.559Z,24.24
2023-05-06T18:10:32.858Z,24.12
2023-05-06T18:15:28.029Z,23.76
2023-05-06T18:20:28.216Z,23.70
2023-05-06T18:25:27.277Z,23.53
2023-05-06T18:30:27.578Z,23.53
2023-05-06T18:35:25.900Z,23.70
2023-05-06T18:40:25.228Z,23.55
2023-05-06T18:45:24.307Z,23.23
2023-05-06T18:50:23.653Z,23.12
2023-05-06T18:55:22.886Z,22.97
2023-05-06T19:00:22.034Z,22.82
2023-05-06T19:05:22.247Z,22.72
2023-05-06T19:10:22.416Z,22.54
2023-05-06T19:15:20.619Z,22.36
2023-05-06T19:20:18.755Z,22.18
2023-05-06T19:25:18.103Z,22.80
2023-05-06T19:30:17.264Z,24.21
2023-05-06T19:35:16.465Z,24.98
2023-05-06T19:40:15.702Z,25.38
2023-05-06T19:45:16.458Z,25.85
2023-05-06T19:50:15.226Z,26.10
2023-05-06T19:55:13.688Z,26.30
2023-05-06T20:00:12.837Z,26.05
2023-05-06T20:05:13.180Z,25.99
2023-05-06T20:10:11.172Z,25.98
2023-05-06T20:15:11.641Z,25.98
2023-05-06T20:20:09.774Z,25.87
2023-05-06T20:25:09.054Z,25.80
2023-05-06T20:30:08.004Z,25.67
2023-05-06T20:35:07.161Z,25.70
2023-05-06T20:40:06.463Z,25.36
2023-05-06T20:45:05.519Z,25.47
2023-05-06T20:50:04.639Z,25.70
2023-05-06T20:55:03.952Z,25.65
2023-05-06T21:00:02.194Z,25.97
2023-05-06T21:05:02.465Z,26.09
2023-05-06T21:10:01.708Z,25.67
2023-05-06T21:15:01.070Z,25.70
2023-05-06T21:20:01.409Z,25.13
2023-05-06T21:25:00.413Z,24.62
2023-05-06T21:29:59.662Z,23.53
2023-05-06T21:34:57.895Z,23.98
2023-05-06T21:39:58.171Z,24.34
2023-05-06T21:44:57.403Z,25.21
2023-05-06T21:49:55.664Z,24.83
2023-05-06T21:54:55.886Z,24.62
2023-05-06T21:59:54.123Z,23.97
2023-05-06T22:04:55.383Z,23.95
2023-05-06T22:09:52.624Z,24.20
2023-05-06T22:14:51.927Z,24.78
2023-05-06T22:19:51.195Z,24.78
2023-05-06T22:24:50.532Z,24.93
2023-05-06T22:29:50.761Z,24.98
2023-05-06T22:34:48.978Z,24.96
2023-05-06T22:39:48.183Z,25.64
2023-05-06T22:44:47.392Z,25.79
2023-05-06T22:49:46.659Z,25.46
2023-05-06T22:54:46.855Z,24.71
2023-05-06T22:59:49.067Z,24.08
2023-05-06T23:04:44.266Z,25.24
2023-05-06T23:09:43.444Z,26.13
2023-05-06T23:14:42.667Z,26.52
2023-05-06T23:19:44.112Z,26.97
2023-05-06T23:24:43.216Z,26.91
2023-05-06T23:29:41.446Z,27.06
2023-05-06T23:34:41.691Z,26.95
2023-05-06T23:39:40.949Z,26.80
2023-05-06T23:44:39.181Z,26.62
2023-05-06T23:49:38.392Z,26.50
2023-05-06T23:54:36.620Z,26.29
2023-05-06T23:59:36.843Z,26.15
